PWSweather.com
Personal Weather Stations
Station Observations
DEKREUPEL
Wsv De Kreupel, AndijkNL 1619 JV

Wsv De KreupelAndijkNL 1619 JV

Lat: 52.7417364, Lon: 5.1809356

Elevation: 33

Station Type: Rainwise MKiii LR

Latest ConditionsUpdated 5:19:00 PM GMT+01:01 Tuesday, Sep 18, 2018
Currently Today's Max Today's Min Today's Average
Temperature 68.0°F20.0°C 71.9°F22.2°C 63.5°F17.5°C 69.7°F20.9°C
Dew Point 97.0°F36.1°C 101.4°F38.6°C 91.9°F33.3°C 98.8°F37.1°C
Winds 15.3 mph WSW24.6 kmh WSW 24.5 mph -39.4 kmh - - 16.9 mph 27.2 kmh
Wind Gusts 21.6 mph34.8 kmh 34.8 mph56.0 kmh - -
Humidity - - - -
Pressure 29.97 in1014.9 mb 29.97 in1014.9 mb 0.00 in0.0 mb -
Hour Temp Dew Point Humidity Winds Wind Gusts Pressure Precip Precip Rate Daily Precip Total
05:19 PM 68.0°F20.0°C 97.0°F36.1°C - 15.3 mph WSW24.6 kmh WSW 21.6 mph34.8 kmh 29.97 in1014.9 mb 0.00 in0.0 mm 0.00 in0.0 mm 0.00 in0.0 mm
05:14 PM 68.2°F20.1°C 97.2°F36.2°C - 19.0 mph WSW30.6 kmh WSW 24.9 mph40.1 kmh 29.97 in1014.9 mb 0.00 in0.0 mm 0.00 in0.0 mm 0.00 in0.0 mm
05:09 PM 68.4°F20.2°C 97.3°F36.3°C - 17.3 mph WSW27.8 kmh WSW 23.4 mph37.7 kmh 29.97 in1014.9 mb 0.00 in0.0 mm 0.00 in0.0 mm 0.00 in0.0 mm
05:04 PM 68.5°F20.3°C 97.5°F36.4°C - 20.1 mph WSW32.3 kmh WSW 27.1 mph43.6 kmh 29.97 in1014.9 mb 0.00 in0.0 mm 0.00 in0.0 mm 0.00 in0.0 mm
04:59 PM 68.7°F20.4°C 97.7°F36.5°C - 23.8 mph WSW38.3 kmh WSW 32.1 mph51.7 kmh 29.96 in1014.6 mb 0.00 in0.0 mm 0.00 in0.0 mm 0.00 in0.0 mm
04:54 PM 68.9°F20.5°C 97.8°F36.6°C - 24.4 mph WSW39.3 kmh WSW 32.9 mph52.9 kmh 29.97 in1014.9 mb 0.00 in0.0 mm 0.00 in0.0 mm 0.00 in0.0 mm
04:49 PM 69.0°F20.6°C 98.0°F36.7°C - 20.4 mph WSW32.8 kmh WSW 26.6 mph42.8 kmh 29.96 in1014.6 mb 0.00 in0.0 mm 0.00 in0.0 mm 0.00 in0.0 mm
04:44 PM 69.2°F20.7°C 98.3°F36.8°C - 18.2 mph WSW29.3 kmh WSW 25.7 mph41.4 kmh 29.96 in1014.6 mb 0.00 in0.0 mm 0.00 in0.0 mm 0.00 in0.0 mm
04:39 PM 69.2°F20.7°C 98.2°F36.8°C - 19.9 mph WSW32.0 kmh WSW 26.7 mph43.0 kmh 29.96 in1014.6 mb 0.00 in0.0 mm 0.00 in0.0 mm 0.00 in0.0 mm
04:34 PM 69.4°F20.8°C 98.5°F36.9°C - 20.3 mph WSW32.7 kmh WSW 27.5 mph44.3 kmh 29.96 in1014.6 mb 0.00 in0.0 mm 0.00 in0.0 mm 0.00 in0.0 mm
04:29 PM 69.5°F20.8°C 98.7°F37.1°C - 19.6 mph WSW31.5 kmh WSW 25.3 mph40.7 kmh 29.96 in1014.6 mb 0.00 in0.0 mm 0.00 in0.0 mm 0.00 in0.0 mm
04:24 PM 69.4°F20.8°C 98.5°F36.9°C - 20.7 mph WSW33.3 kmh WSW 28.5 mph45.9 kmh 29.96 in1014.6 mb 0.00 in0.0 mm 0.00 in0.0 mm 0.00 in0.0 mm
04:19 PM 69.5°F20.8°C 98.5°F36.9°C - 19.7 mph WSW31.7 kmh WSW 27.0 mph43.5 kmh 29.95 in1014.2 mb 0.00 in0.0 mm 0.00 in0.0 mm 0.00 in0.0 mm
04:14 PM 69.6°F20.9°C 98.6°F37.0°C - 21.1 mph WSW34.0 kmh WSW 29.6 mph47.6 kmh 29.96 in1014.6 mb 0.00 in0.0 mm 0.00 in0.0 mm 0.00 in0.0 mm
04:09 PM 69.7°F20.9°C 98.7°F37.1°C - 19.6 mph WSW31.5 kmh WSW 24.5 mph39.4 kmh 29.95 in1014.2 mb 0.00 in0.0 mm 0.00 in0.0 mm 0.00 in0.0 mm
04:04 PM 69.7°F20.9°C 98.9°F37.2°C - 19.5 mph WSW31.4 kmh WSW 26.1 mph42.0 kmh 29.95 in1014.2 mb 0.00 in0.0 mm 0.00 in0.0 mm 0.00 in0.0 mm
03:59 PM 69.7°F20.9°C 98.9°F37.2°C - 18.6 mph WSW29.9 kmh WSW 26.3 mph42.3 kmh 29.96 in1014.6 mb 0.00 in0.0 mm 0.00 in0.0 mm 0.00 in0.0 mm
03:54 PM 69.7°F20.9°C 98.9°F37.2°C - 16.4 mph WSW26.4 kmh WSW 22.3 mph35.9 kmh 29.95 in1014.2 mb 0.00 in0.0 mm 0.00 in0.0 mm 0.00 in0.0 mm
03:49 PM 69.7°F20.9°C 98.7°F37.1°C - 20.2 mph WSW32.5 kmh WSW 27.1 mph43.6 kmh 29.95 in1014.2 mb 0.00 in0.0 mm 0.00 in0.0 mm 0.00 in0.0 mm
03:44 PM 69.8°F21.0°C 99.0°F37.2°C - 21.8 mph WSW35.1 kmh WSW 28.6 mph46.0 kmh 29.95 in1014.2 mb 0.00 in0.0 mm 0.00 in0.0 mm 0.00 in0.0 mm
03:39 PM 70.0°F21.1°C 99.2°F37.3°C - 21.2 mph WSW34.1 kmh WSW 27.2 mph43.8 kmh 29.95 in1014.2 mb 0.00 in0.0 mm 0.00 in0.0 mm 0.00 in0.0 mm
03:34 PM 70.0°F21.1°C 99.1°F37.3°C - 20.9 mph WSW33.6 kmh WSW 28.4 mph45.7 kmh 29.94 in1013.9 mb 0.00 in0.0 mm 0.00 in0.0 mm 0.00 in0.0 mm
03:29 PM 70.0°F21.1°C 99.1°F37.3°C - 17.3 mph WSW27.8 kmh WSW 22.4 mph36.0 kmh 29.95 in1014.2 mb 0.00 in0.0 mm 0.00 in0.0 mm 0.00 in0.0 mm
03:24 PM 70.0°F21.1°C 99.1°F37.3°C - 20.0 mph WSW32.2 kmh WSW 25.3 mph40.7 kmh 29.94 in1013.9 mb 0.00 in0.0 mm 0.00 in0.0 mm 0.00 in0.0 mm
03:19 PM 70.0°F21.1°C 99.2°F37.3°C - 16.0 mph WSW25.7 kmh WSW 22.5 mph36.2 kmh 29.95 in1014.2 mb 0.00 in0.0 mm 0.00 in0.0 mm 0.00 in0.0 mm
03:14 PM 69.9°F21.1°C 99.1°F37.3°C - 18.9 mph WSW30.4 kmh WSW 26.0 mph41.8 kmh 29.94 in1013.9 mb 0.00 in0.0 mm 0.00 in0.0 mm 0.00 in0.0 mm
03:09 PM 69.9°F21.1°C 99.1°F37.3°C - 18.3 mph WSW29.5 kmh WSW 23.0 mph37.0 kmh 29.94 in1013.9 mb 0.00 in0.0 mm 0.00 in0.0 mm 0.00 in0.0 mm
03:04 PM 70.0°F21.1°C 99.2°F37.3°C - 20.2 mph WSW32.5 kmh WSW 27.6 mph44.4 kmh 29.94 in1013.9 mb 0.00 in0.0 mm 0.00 in0.0 mm 0.00 in0.0 mm
03:00 PM 70.0°F21.1°C 99.1°F37.3°C - 18.0 mph WSW29.0 kmh WSW 22.6 mph36.4 kmh 29.94 in1013.9 mb 0.00 in0.0 mm 0.00 in0.0 mm 0.00 in0.0 mm
02:54 PM 70.5°F21.4°C 99.8°F37.7°C - 20.0 mph WSW32.2 kmh WSW 25.6 mph41.2 kmh 29.94 in1013.9 mb 0.00 in0.0 mm 0.00 in0.0 mm 0.00 in0.0 mm
02:49 PM 71.2°F21.8°C 100.6°F38.1°C - 23.8 mph WSW38.3 kmh WSW 29.8 mph48.0 kmh 29.93 in1013.5 mb 0.00 in0.0 mm 0.00 in0.0 mm 0.00 in0.0 mm
02:44 PM 71.7°F22.1°C 101.0°F38.3°C - 23.3 mph WSW37.5 kmh WSW 30.3 mph48.8 kmh 29.93 in1013.5 mb 0.00 in0.0 mm 0.00 in0.0 mm 0.00 in0.0 mm
02:39 PM 71.9°F22.2°C 101.2°F38.4°C - 21.0 mph WSW33.8 kmh WSW 28.8 mph46.3 kmh 29.93 in1013.5 mb 0.00 in0.0 mm 0.00 in0.0 mm 0.00 in0.0 mm
02:34 PM 71.7°F22.1°C 101.0°F38.3°C - 19.3 mph WSW31.1 kmh WSW 27.8 mph44.7 kmh 29.93 in1013.5 mb 0.00 in0.0 mm 0.00 in0.0 mm 0.00 in0.0 mm
02:29 PM 71.7°F22.1°C 101.1°F38.4°C - 17.6 mph WSW28.3 kmh WSW 24.7 mph39.8 kmh 29.93 in1013.5 mb 0.00 in0.0 mm 0.00 in0.0 mm 0.00 in0.0 mm
02:24 PM 71.7°F22.1°C 101.1°F38.4°C - 15.3 mph WSW24.6 kmh WSW 21.8 mph35.1 kmh 29.93 in1013.5 mb 0.00 in0.0 mm 0.00 in0.0 mm 0.00 in0.0 mm
02:19 PM 71.9°F22.2°C 101.4°F38.6°C - 16.3 mph WSW26.2 kmh WSW 21.8 mph35.1 kmh 29.93 in1013.5 mb 0.00 in0.0 mm 0.00 in0.0 mm 0.00 in0.0 mm
02:14 PM 71.7°F22.1°C 101.0°F38.3°C - 12.9 mph WSW20.8 kmh WSW 18.9 mph30.4 kmh 29.93 in1013.5 mb 0.00 in0.0 mm 0.00 in0.0 mm 0.00 in0.0 mm
02:09 PM 71.4°F21.9°C 100.8°F38.2°C - 13.3 mph WSW21.4 kmh WSW 19.0 mph30.6 kmh 29.93 in1013.5 mb 0.00 in0.0 mm 0.00 in0.0 mm 0.00 in0.0 mm
02:04 PM 71.2°F21.8°C 100.6°F38.1°C - 14.4 mph WSW23.2 kmh WSW 20.9 mph33.6 kmh 29.93 in1013.5 mb 0.00 in0.0 mm 0.00 in0.0 mm 0.00 in0.0 mm
01:59 PM 71.0°F21.7°C 100.3°F37.9°C - 15.6 mph SW25.1 kmh SW 21.1 mph34.0 kmh 29.93 in1013.5 mb 0.00 in0.0 mm 0.00 in0.0 mm 0.00 in0.0 mm
01:54 PM 71.0°F21.7°C 100.3°F37.9°C - 21.0 mph WSW33.8 kmh WSW 27.8 mph44.7 kmh 29.92 in1013.2 mb 0.00 in0.0 mm 0.00 in0.0 mm 0.00 in0.0 mm
01:49 PM 71.2°F21.8°C 100.4°F38.0°C - 18.1 mph WSW29.1 kmh WSW 25.3 mph40.7 kmh 29.93 in1013.5 mb 0.00 in0.0 mm 0.00 in0.0 mm 0.00 in0.0 mm
01:44 PM 71.0°F21.7°C 100.2°F37.9°C - 14.0 mph WSW22.5 kmh WSW 20.5 mph33.0 kmh 29.93 in1013.5 mb 0.00 in0.0 mm 0.00 in0.0 mm 0.00 in0.0 mm
01:39 PM 70.7°F21.5°C 100.0°F37.8°C - 18.6 mph SW29.9 kmh SW 26.2 mph42.2 kmh 29.93 in1013.5 mb 0.00 in0.0 mm 0.00 in0.0 mm 0.00 in0.0 mm
01:34 PM 70.5°F21.4°C 99.8°F37.7°C - 17.2 mph WSW27.7 kmh WSW 22.9 mph36.9 kmh 29.93 in1013.5 mb 0.00 in0.0 mm 0.00 in0.0 mm 0.00 in0.0 mm
01:29 PM 70.3°F21.3°C 99.4°F37.4°C - 15.9 mph WSW25.6 kmh WSW 22.2 mph35.7 kmh 29.93 in1013.5 mb 0.00 in0.0 mm 0.00 in0.0 mm 0.00 in0.0 mm
01:24 PM 70.0°F21.1°C 99.2°F37.3°C - 19.7 mph WSW31.7 kmh WSW 24.9 mph40.1 kmh 29.93 in1013.5 mb 0.00 in0.0 mm 0.00 in0.0 mm 0.00 in0.0 mm
01:19 PM 70.0°F21.1°C 99.1°F37.3°C - 20.4 mph WSW32.8 kmh WSW 25.5 mph41.0 kmh 29.93 in1013.5 mb 0.00 in0.0 mm 0.00 in0.0 mm 0.00 in0.0 mm
01:14 PM 70.0°F21.1°C 99.1°F37.3°C - 20.3 mph WSW32.7 kmh WSW 24.5 mph39.4 kmh 29.93 in1013.5 mb 0.00 in0.0 mm 0.00 in0.0 mm 0.00 in0.0 mm
01:09 PM 70.2°F21.2°C 99.3°F37.4°C - 23.4 mph WSW37.7 kmh WSW 30.6 mph49.2 kmh 29.93 in1013.5 mb 0.00 in0.0 mm 0.00 in0.0 mm 0.00 in0.0 mm
01:04 PM 70.0°F21.1°C 99.2°F37.3°C - 21.0 mph WSW33.8 kmh WSW 29.9 mph48.1 kmh 29.93 in1013.5 mb 0.00 in0.0 mm 0.00 in0.0 mm 0.00 in0.0 mm
12:59 PM 70.0°F21.1°C 99.1°F37.3°C - 21.3 mph WSW34.3 kmh WSW 29.4 mph47.3 kmh 29.93 in1013.5 mb 0.00 in0.0 mm 0.00 in0.0 mm 0.00 in0.0 mm
12:54 PM 70.0°F21.1°C 99.2°F37.3°C - 22.6 mph WSW36.4 kmh WSW 32.9 mph52.9 kmh 29.93 in1013.5 mb 0.00 in0.0 mm 0.00 in0.0 mm 0.00 in0.0 mm
12:49 PM 69.9°F21.1°C 99.1°F37.3°C - 22.7 mph WSW36.5 kmh WSW 30.2 mph48.6 kmh 29.93 in1013.5 mb 0.00 in0.0 mm 0.00 in0.0 mm 0.00 in0.0 mm
12:44 PM 69.9°F21.1°C 99.1°F37.3°C - 24.0 mph WSW38.6 kmh WSW 30.7 mph49.4 kmh 29.93 in1013.5 mb 0.00 in0.0 mm 0.00 in0.0 mm 0.00 in0.0 mm
12:39 PM 70.0°F21.1°C 99.2°F37.3°C - 24.3 mph WSW39.1 kmh WSW 32.7 mph52.6 kmh 29.93 in1013.5 mb 0.00 in0.0 mm 0.00 in0.0 mm 0.00 in0.0 mm
12:34 PM 70.3°F21.3°C 99.4°F37.4°C - 24.5 mph WSW39.4 kmh WSW 34.8 mph56.0 kmh 29.92 in1013.2 mb 0.00 in0.0 mm 0.00 in0.0 mm 0.00 in0.0 mm
12:29 PM 70.7°F21.5°C 100.0°F37.8°C - 22.3 mph WSW35.9 kmh WSW 29.6 mph47.6 kmh 29.93 in1013.5 mb 0.00 in0.0 mm 0.00 in0.0 mm 0.00 in0.0 mm
12:24 PM 70.7°F21.5°C 100.0°F37.8°C - 19.5 mph WSW31.4 kmh WSW 26.7 mph43.0 kmh 29.93 in1013.5 mb 0.00 in0.0 mm 0.00 in0.0 mm 0.00 in0.0 mm
12:19 PM 70.7°F21.5°C 100.0°F37.8°C - 19.5 mph WSW31.4 kmh WSW 26.0 mph41.8 kmh 29.92 in1013.2 mb 0.00 in0.0 mm 0.00 in0.0 mm 0.00 in0.0 mm
12:14 PM 70.7°F21.5°C 100.0°F37.8°C - 18.7 mph WSW30.1 kmh WSW 25.2 mph40.6 kmh 29.92 in1013.2 mb 0.00 in0.0 mm 0.00 in0.0 mm 0.00 in0.0 mm
12:10 PM 70.7°F21.5°C 100.0°F37.8°C - 23.2 mph WSW37.3 kmh WSW 31.1 mph50.1 kmh 29.92 in1013.2 mb 0.00 in0.0 mm 0.00 in0.0 mm 0.00 in0.0 mm
12:04 PM 70.7°F21.5°C 99.9°F37.7°C - 18.4 mph WSW29.6 kmh WSW 24.9 mph40.1 kmh 29.92 in1013.2 mb 0.00 in0.0 mm 0.00 in0.0 mm 0.00 in0.0 mm
11:59 AM 70.7°F21.5°C 100.0°F37.8°C - 19.1 mph WSW30.7 kmh WSW 26.1 mph42.0 kmh 29.91 in1012.9 mb 0.00 in0.0 mm 0.00 in0.0 mm 0.00 in0.0 mm
11:54 AM 70.7°F21.5°C 100.0°F37.8°C - 18.0 mph WSW29.0 kmh WSW 24.5 mph39.4 kmh 29.91 in1012.9 mb 0.00 in0.0 mm 0.00 in0.0 mm 0.00 in0.0 mm
11:49 AM 70.7°F21.5°C 100.0°F37.8°C - 18.7 mph WSW30.1 kmh WSW 26.6 mph42.8 kmh 29.91 in1012.9 mb 0.00 in0.0 mm 0.00 in0.0 mm 0.00 in0.0 mm
11:44 AM 70.7°F21.5°C 99.9°F37.7°C - 17.4 mph SW28.0 kmh SW 23.7 mph38.1 kmh 29.91 in1012.9 mb 0.00 in0.0 mm 0.00 in0.0 mm 0.00 in0.0 mm
11:39 AM 70.7°F21.5°C 100.0°F37.8°C - 17.5 mph SW28.2 kmh SW 25.0 mph40.2 kmh 29.91 in1012.9 mb 0.00 in0.0 mm 0.00 in0.0 mm 0.00 in0.0 mm
11:34 AM 70.7°F21.5°C 99.9°F37.7°C - 18.6 mph WSW29.9 kmh WSW 24.6 mph39.6 kmh 29.91 in1012.9 mb 0.00 in0.0 mm 0.00 in0.0 mm 0.00 in0.0 mm
11:29 AM 70.7°F21.5°C 100.0°F37.8°C - 18.8 mph WSW30.3 kmh WSW 26.0 mph41.8 kmh 29.91 in1012.9 mb 0.00 in0.0 mm 0.00 in0.0 mm 0.00 in0.0 mm
11:24 AM 70.7°F21.5°C 100.0°F37.8°C - 17.2 mph WSW27.7 kmh WSW 23.2 mph37.3 kmh 29.91 in1012.9 mb 0.00 in0.0 mm 0.00 in0.0 mm 0.00 in0.0 mm
11:19 AM 70.7°F21.5°C 100.0°F37.8°C - 18.7 mph WSW30.1 kmh WSW 25.3 mph40.7 kmh 29.91 in1012.9 mb 0.00 in0.0 mm 0.00 in0.0 mm 0.00 in0.0 mm
11:14 AM 71.0°F21.7°C 100.3°F37.9°C - 16.8 mph WSW27.0 kmh WSW 22.7 mph36.5 kmh 29.91 in1012.9 mb 0.00 in0.0 mm 0.00 in0.0 mm 0.00 in0.0 mm
11:09 AM 71.0°F21.7°C 100.2°F37.9°C - 16.0 mph WSW25.7 kmh WSW 20.5 mph33.0 kmh 29.91 in1012.9 mb 0.00 in0.0 mm 0.00 in0.0 mm 0.00 in0.0 mm
11:04 AM 70.8°F21.6°C 100.1°F37.8°C - 14.6 mph WSW23.5 kmh WSW 21.1 mph34.0 kmh 29.91 in1012.9 mb 0.00 in0.0 mm 0.00 in0.0 mm 0.00 in0.0 mm
10:59 AM 70.9°F21.6°C 100.1°F37.8°C - 17.9 mph WSW28.8 kmh WSW 23.8 mph38.3 kmh 29.91 in1012.9 mb 0.00 in0.0 mm 0.00 in0.0 mm 0.00 in0.0 mm
10:54 AM 70.9°F21.6°C 100.2°F37.9°C - 13.7 mph WSW22.0 kmh WSW 19.0 mph30.6 kmh 29.91 in1012.9 mb 0.00 in0.0 mm 0.00 in0.0 mm 0.00 in0.0 mm
10:49 AM 70.7°F21.5°C 100.0°F37.8°C - 14.5 mph WSW23.3 kmh WSW 19.3 mph31.1 kmh 29.91 in1012.9 mb 0.00 in0.0 mm 0.00 in0.0 mm 0.00 in0.0 mm
10:44 AM 70.7°F21.5°C 100.0°F37.8°C - 16.9 mph WSW27.2 kmh WSW 21.2 mph34.1 kmh 29.91 in1012.9 mb 0.00 in0.0 mm 0.00 in0.0 mm 0.00 in0.0 mm
10:39 AM 70.5°F21.4°C 99.7°F37.6°C - 13.7 mph WSW22.0 kmh WSW 18.8 mph30.3 kmh 29.90 in1012.5 mb 0.00 in0.0 mm 0.00 in0.0 mm 0.00 in0.0 mm
10:34 AM 70.2°F21.2°C 99.4°F37.4°C - 11.2 mph SW18.0 kmh SW 16.1 mph25.9 kmh 29.90 in1012.5 mb 0.00 in0.0 mm 0.00 in0.0 mm 0.00 in0.0 mm
10:29 AM 69.9°F21.1°C 99.0°F37.2°C - 12.2 mph WSW19.6 kmh WSW 17.6 mph28.3 kmh 29.90 in1012.5 mb 0.00 in0.0 mm 0.00 in0.0 mm 0.00 in0.0 mm
10:24 AM 69.7°F20.9°C 98.7°F37.1°C - 12.5 mph WSW20.1 kmh WSW 16.2 mph26.1 kmh 29.90 in1012.5 mb 0.00 in0.0 mm 0.00 in0.0 mm 0.00 in0.0 mm
10:19 AM 69.5°F20.8°C 98.5°F36.9°C - 12.3 mph WSW19.8 kmh WSW 17.2 mph27.7 kmh 29.90 in1012.5 mb 0.00 in0.0 mm 0.00 in0.0 mm 0.00 in0.0 mm
10:14 AM 69.4°F20.8°C 98.5°F36.9°C - 12.8 mph SW20.6 kmh SW 18.6 mph29.9 kmh 29.90 in1012.5 mb 0.00 in0.0 mm 0.00 in0.0 mm 0.00 in0.0 mm
10:09 AM 69.2°F20.7°C 98.2°F36.8°C - 12.3 mph WSW19.8 kmh WSW 16.8 mph27.0 kmh 29.90 in1012.5 mb 0.00 in0.0 mm 0.00 in0.0 mm 0.00 in0.0 mm
10:04 AM 69.2°F20.7°C 98.2°F36.8°C - 11.4 mph WSW18.3 kmh WSW 15.7 mph25.3 kmh 29.90 in1012.5 mb 0.00 in0.0 mm 0.00 in0.0 mm 0.00 in0.0 mm
09:59 AM 69.0°F20.6°C 98.1°F36.7°C - 12.8 mph SW20.6 kmh SW 17.4 mph28.0 kmh 29.90 in1012.5 mb 0.00 in0.0 mm 0.00 in0.0 mm 0.00 in0.0 mm
09:54 AM 69.0°F20.6°C 98.1°F36.7°C - 11.6 mph SW18.7 kmh SW 16.9 mph27.2 kmh 29.90 in1012.5 mb 0.00 in0.0 mm 0.00 in0.0 mm 0.00 in0.0 mm
09:49 AM 69.0°F20.6°C 98.1°F36.7°C - 12.8 mph SW20.6 kmh SW 18.1 mph29.1 kmh 29.90 in1012.5 mb 0.00 in0.0 mm 0.00 in0.0 mm 0.00 in0.0 mm
09:44 AM 68.9°F20.5°C 97.8°F36.6°C - 11.9 mph SW19.2 kmh SW 17.1 mph27.5 kmh 29.90 in1012.5 mb 0.00 in0.0 mm 0.00 in0.0 mm 0.00 in0.0 mm
09:39 AM 68.7°F20.4°C 97.6°F36.4°C - 11.6 mph WSW18.7 kmh WSW 15.7 mph25.3 kmh 29.90 in1012.5 mb 0.00 in0.0 mm 0.00 in0.0 mm 0.00 in0.0 mm
09:34 AM 68.5°F20.3°C 97.5°F36.4°C - 11.0 mph SW17.7 kmh SW 15.1 mph24.3 kmh 29.89 in1012.2 mb 0.00 in0.0 mm 0.00 in0.0 mm 0.00 in0.0 mm
09:29 AM 68.2°F20.1°C 97.1°F36.2°C - 11.7 mph SW18.8 kmh SW 15.1 mph24.3 kmh 29.90 in1012.5 mb 0.00 in0.0 mm 0.00 in0.0 mm 0.00 in0.0 mm
09:24 AM 68.0°F20.0°C 96.8°F36.0°C - 10.4 mph SW16.7 kmh SW 14.7 mph23.7 kmh 29.90 in1012.5 mb 0.00 in0.0 mm 0.00 in0.0 mm 0.00 in0.0 mm
09:19 AM 67.7°F19.8°C 96.5°F35.8°C - 11.0 mph SW17.7 kmh SW 14.8 mph23.8 kmh 29.90 in1012.5 mb 0.00 in0.0 mm 0.00 in0.0 mm 0.00 in0.0 mm
09:14 AM 67.5°F19.7°C 96.3°F35.7°C - 10.8 mph SW17.4 kmh SW 15.4 mph24.8 kmh 29.89 in1012.2 mb 0.00 in0.0 mm 0.00 in0.0 mm 0.00 in0.0 mm
09:09 AM 67.4°F19.7°C 96.3°F35.7°C - 9.3 mph SW15.0 kmh SW 13.6 mph21.9 kmh 29.89 in1012.2 mb 0.00 in0.0 mm 0.00 in0.0 mm 0.00 in0.0 mm
09:04 AM 67.2°F19.6°C 96.1°F35.6°C - 10.8 mph SSW17.4 kmh SSW 14.0 mph22.5 kmh 29.90 in1012.5 mb 0.00 in0.0 mm 0.00 in0.0 mm 0.00 in0.0 mm
08:59 AM 67.0°F19.4°C 95.8°F35.4°C - 9.2 mph SW14.8 kmh SW 13.4 mph21.6 kmh 29.90 in1012.5 mb 0.00 in0.0 mm 0.00 in0.0 mm 0.00 in0.0 mm
08:54 AM 66.9°F19.4°C 95.6°F35.3°C - 11.2 mph SSW18.0 kmh SSW 14.8 mph23.8 kmh 29.89 in1012.2 mb 0.00 in0.0 mm 0.00 in0.0 mm 0.00 in0.0 mm
08:49 AM 66.6°F19.2°C 95.4°F35.2°C - 9.7 mph SW15.6 kmh SW 14.9 mph24.0 kmh 29.89 in1012.2 mb 0.00 in0.0 mm 0.00 in0.0 mm 0.00 in0.0 mm
08:44 AM 66.4°F19.1°C 95.2°F35.1°C - 11.9 mph SSW19.2 kmh SSW 18.0 mph29.0 kmh 29.89 in1012.2 mb 0.00 in0.0 mm 0.00 in0.0 mm 0.00 in0.0 mm
08:39 AM 66.2°F19.0°C 94.9°F34.9°C - 10.1 mph SW16.3 kmh SW 14.0 mph22.5 kmh 29.89 in1012.2 mb 0.00 in0.0 mm 0.00 in0.0 mm 0.00 in0.0 mm
08:34 AM 66.0°F18.9°C 94.7°F34.8°C - 9.1 mph SSW14.6 kmh SSW 12.3 mph19.8 kmh 29.89 in1012.2 mb 0.00 in0.0 mm 0.00 in0.0 mm 0.00 in0.0 mm
08:29 AM 65.7°F18.7°C 94.2°F34.6°C - 8.9 mph SSW14.3 kmh SSW 13.4 mph21.6 kmh 29.89 in1012.2 mb 0.00 in0.0 mm 0.00 in0.0 mm 0.00 in0.0 mm
08:24 AM 65.4°F18.6°C 94.0°F34.4°C - 9.5 mph SSW15.3 kmh SSW 14.5 mph23.3 kmh 29.89 in1012.2 mb 0.00 in0.0 mm 0.00 in0.0 mm 0.00 in0.0 mm
07:47 AM 63.5°F17.5°C 91.9°F33.3°C - Calm Calm -- 0.00 in0.0 mb 0.00 in0.0 mm 0.00 in0.0 mm 0.00 in0.0 mm